Time;durP1;ratioP1;P1;durP2;ratioP2;P2;SDS_P1;SDS_P2;PMS_P1;PMS_P2;Temp;Humidity;BMP_temperature;BMP_pressure;BME280_temperature;BME280_humidity;BME280_pressure;Samples;Min_cycle;Max_cycle;Signal;HPM_P1;HPM_P2
2022/12/09 00:03:43;;;;;;;;;;;;;;;;;;10503988;28;19924;-64
2022/12/09 00:08:45;;;;;;;;;;;;;;;;;;10504553;28;19939;-64
2022/12/09 00:13:47;;;;;;;;;;;;;;;;;;10504899;28;20442;-64
2022/12/09 00:18:50;;;;;;;;;;;;;;;;;;10504338;28;19928;-64
2022/12/09 00:23:52;;;;;;;;;;;;;;;;;;10503899;28;19924;-64
2022/12/09 00:28:54;;;;;;;;;;;;;;;;;;10503441;28;19925;-64
2022/12/09 00:33:56;;;;;;;;;;;;;;;;;;10503083;28;19925;-64
2022/12/09 00:38:58;;;;;;;;;;;;;;;;;;10503526;28;20340;-64
2022/12/09 00:44:01;;;;;;;;;;;;;;;;;;10503255;28;20454;-64
2022/12/09 00:49:03;;;;;;;;;;;;;;;;;;10510162;22;19924;-59
2022/12/09 00:54:05;;;;;;;;;;;;;;;;;;10503401;28;19978;-59
2022/12/09 00:59:07;;;;;;;;;;;;;;;;;;10503371;28;19932;-59
2022/12/09 01:04:09;;;;;;;;;;;;;;;;;;10502189;28;19932;-59
2022/12/09 01:09:12;;;;;;;;;;;;;;;;;;10502970;28;19928;-59
2022/12/09 01:14:14;;;;;;;;;;;;;;;;;;10501097;28;20326;-59
2022/12/09 01:19:17;;;;;;;;;;;;;;;;;;10502530;28;19925;-59
2022/12/09 01:24:19;;;;;;;;;;;;;;;;;;10501637;28;19924;-59
2022/12/09 01:29:21;;;;;;;;;;;;;;;;;;10500906;28;19925;-59
2022/12/09 01:34:23;;;;;;;;;;;;;;;;;;10501779;28;19931;-59
2022/12/09 01:39:25;;;;;;;;;;;;;;;;;;10483199;28;20283;-59
2022/12/09 01:44:27;;;;;;;;;;;;;;;;;;10499097;28;19931;-59
2022/12/09 01:49:29;;;;;;;;;;;;;;;;;;10500104;28;19932;-59
2022/12/09 01:54:32;;;;;;;;;;;;;;;;;;10500290;28;20345;-59
2022/12/09 01:59:34;;;;;;;;;;;;;;;;;;10500198;28;19925;-59
2022/12/09 02:04:36;;;;;;;;;;;;;;;;;;10499481;28;19948;-59
2022/12/09 02:09:38;;;;;;;;;;;;;;;;;;10500464;28;19924;-58
2022/12/09 02:14:41;;;;;;;;;;;;;;;;;;10498872;28;19932;-59
2022/12/09 02:19:43;;;;;;;;;;;;;;;;;;10499570;28;19925;-59
2022/12/09 02:24:45;;;;;;;;;;;;;;;;;;10499101;28;20401;-59
2022/12/09 02:29:47;;;;;;;;;;;;;;;;;;10499087;28;19978;-59
2022/12/09 02:34:49;;;;;;;;;;;;;;;;;;10497701;28;19929;-59
2022/12/09 02:39:52;;;;;;;;;;;;;;;;;;10498923;28;20326;-59
2022/12/09 02:44:54;;;;;;;;;;;;;;;;;;10498385;28;19925;-59
2022/12/09 02:49:56;;;;;;;;;;;;;;;;;;10498355;28;20426;-59
2022/12/09 02:54:59;;;;;;;;;;;;;;;;;;10498130;28;19925;-59
2022/12/09 03:00:01;;;;;;;;;;;;;;;;;;10498166;28;19931;-59
2022/12/09 03:05:03;;;;;;;;;;;;;;;;;;10498945;28;19931;-59
2022/12/09 03:10:05;;;;;;;;;;;;;;;;;;10480953;28;19975;-59
2022/12/09 03:15:08;;;;;;;;;;;;;;;;;;10497993;28;19924;-59
2022/12/09 03:20:10;;;;;;;;;;;;;;;;;;10497454;28;20433;-59
2022/12/09 03:25:13;;;;;;;;;;;;;;;;;;10497887;28;20306;-59
2022/12/09 03:30:16;;;;;;;;;;;;;;;;;;10497749;28;19931;-59
2022/12/09 03:35:18;;;;;;;;;;;;;;;;;;10497325;28;19924;-59
2022/12/09 03:40:20;;;;;;;;;;;;;;;;;;10497609;28;20299;-58
2022/12/09 03:45:23;;;;;;;;;;;;;;;;;;10496690;28;19993;-59
2022/12/09 03:50:25;;;;;;;;;;;;;;;;;;10497402;28;19931;-59
2022/12/09 03:55:28;;;;;;;;;;;;;;;;;;10497217;28;19947;-59
2022/12/09 04:00:30;;;;;;;;;;;;;;;;;;10496714;28;19925;-59
2022/12/09 04:05:32;;;;;;;;;;;;;;;;;;10502607;28;19928;-59
2022/12/09 04:10:34;;;;;;;;;;;;;;;;;;10504301;28;19925;-59
2022/12/09 04:15:36;;;;;;;;;;;;;;;;;;10504870;28;19932;-59
2022/12/09 04:20:39;;;;;;;;;;;;;;;;;;10504857;28;19936;-59
2022/12/09 04:25:41;;;;;;;;;;;;;;;;;;10503424;28;19924;-59
2022/12/09 04:30:43;;;;;;;;;;;;;;;;;;10503612;28;19925;-59
2022/12/09 04:35:45;;;;;;;;;;;;;;;;;;10503611;28;20447;-59
2022/12/09 04:40:47;;;;;;;;;;;;;;;;;;10502764;28;20427;-59
2022/12/09 04:45:49;;;;;;;;;;;;;;;;;;10503890;28;19928;-59
2022/12/09 04:50:52;;;;;;;;;;;;;;;;;;10501877;28;19935;-59
2022/12/09 04:55:54;;;;;;;;;;;;;;;;;;10502822;28;19925;-59
2022/12/09 05:00:56;;;;;;;;;;;;;;;;;;10502672;28;19925;-59
2022/12/09 05:05:58;;;;;;;;;;;;;;;;;;10501767;28;20055;-59
2022/12/09 05:11:00;;;;;;;;;;;;;;;;;;10502237;28;19931;-59
2022/12/09 05:16:03;;;;;;;;;;;;;;;;;;10502203;28;19962;-61
2022/12/09 05:21:09;;;;;;;;;;;;;;;;;;10501843;28;20299;-61
2022/12/09 05:26:11;;;;;;;;;;;;;;;;;;10501797;28;19933;-61
2022/12/09 05:31:16;;;;;;;;;;;;;;;;;;10501407;28;19967;-61
2022/12/09 05:36:19;;;;;;;;;;;;;;;;;;10501770;28;19924;-61
2022/12/09 05:41:21;;;;;;;;;;;;;;;;;;10500475;28;19924;-61
2022/12/09 05:46:23;;;;;;;;;;;;;;;;;;10500772;28;19950;-61
2022/12/09 05:51:26;;;;;;;;;;;;;;;;;;10499753;28;19978;-61
2022/12/09 05:56:28;;;;;;;;;;;;;;;;;;10501054;28;20015;-61
2022/12/09 06:01:31;;;;;;;;;;;;;;;;;;10499384;28;19924;-61
2022/12/09 06:06:33;;;;;;;;;;;;;;;;;;10500636;28;19928;-61
2022/12/09 06:11:36;;;;;;;;;;;;;;;;;;10498993;28;19970;-61
2022/12/09 06:16:38;;;;;;;;;;;;;;;;;;10499457;28;20355;-61
2022/12/09 06:21:41;;;;;;;;;;;;;;;;;;10499339;28;19932;-61
2022/12/09 06:26:43;;;;;;;;;;;;;;;;;;10498550;28;20276;-61
2022/12/09 06:31:46;;;;;;;;;;;;;;;;;;10499751;28;19928;-61
2022/12/09 06:36:48;;;;;;;;;;;;;;;;;;10498943;28;20439;-61
2022/12/09 06:41:50;;;;;;;;;;;;;;;;;;10498865;28;19971;-61
2022/12/09 06:46:53;;;;;;;;;;;;;;;;;;10499395;28;19981;-61
2022/12/09 06:51:55;;;;;;;;;;;;;;;;;;10498408;28;20310;-61
2022/12/09 06:56:57;;;;;;;;;;;;;;;;;;10498446;28;20357;-61
2022/12/09 07:02:00;;;;;;;;;;;;;;;;;;10499037;28;19932;-61
2022/12/09 07:07:02;;;;;;;;;;;;;;;;;;10498354;28;19994;-61
2022/12/09 07:12:05;;;;;;;;;;;;;;;;;;10498788;28;19924;-61
2022/12/09 07:17:07;;;;;;;;;;;;;;;;;;10498675;28;19925;-61
2022/12/09 07:22:10;;;;;;;;;;;;;;;;;;10498616;28;19925;-61
2022/12/09 07:27:12;;;;;;;;;;;;;;;;;;10497923;28;19924;-61
2022/12/09 07:32:20;;;;;;;;;;;;;;;;;;10497785;28;20372;-61
2022/12/09 07:37:22;;;;;;;;;;;;;;;;;;10499352;28;20308;-61
2022/12/09 07:42:25;;;;;;;;;;;;;;;;;;10505760;28;20426;-61
2022/12/09 07:47:27;;;;;;;;;;;;;;;;;;10506169;28;19928;-61
2022/12/09 07:52:30;;;;;;;;;;;;;;;;;;10505194;28;19939;-61
2022/12/09 07:57:32;;;;;;;;;;;;;;;;;;10505690;28;20003;-61
2022/12/09 08:02:35;;;;;;;;;;;;;;;;;;10505577;28;19924;-61
2022/12/09 08:07:37;;;;;;;;;;;;;;;;;;10505409;28;19964;-61
2022/12/09 08:12:44;;;;;;;;;;;;;;;;;;10504536;28;20401;-61
2022/12/09 08:17:47;;;;;;;;;;;;;;;;;;10504994;28;19974;-61
2022/12/09 08:22:49;;;;;;;;;;;;;;;;;;10504830;28;19931;-61
2022/12/09 08:27:52;;;;;;;;;;;;;;;;;;10504631;28;19925;-61
2022/12/09 08:32:54;;;;;;;;;;;;;;;;;;10503800;28;20445;-61
2022/12/09 08:37:56;;;;;;;;;;;;;;;;;;10504255;28;19931;-61
2022/12/09 08:42:59;;;;;;;;;;;;;;;;;;10504042;28;19924;-61
2022/12/09 08:48:01;;;;;;;;;;;;;;;;;;10502717;28;20275;-61
2022/12/09 08:53:03;;;;;;;;;;;;;;;;;;10502744;28;20302;-61
2022/12/09 08:58:06;;;;;;;;;;;;;;;;;;10503413;28;19925;-61
2022/12/09 09:03:08;;;;;;;;;;;;;;;;;;10503301;28;19925;-61
2022/12/09 09:08:11;;;;;;;;;;;;;;;;;;10503163;28;19931;-61
2022/12/09 09:13:13;;;;;;;;;;;;;;;;;;10502877;28;19928;-61
2022/12/09 09:18:15;;;;;;;;;;;;;;;;;;10501989;28;19924;-61
2022/12/09 09:23:18;;;;;;;;;;;;;;;;;;10501844;28;20383;-61
2022/12/09 09:28:20;;;;;;;;;;;;;;;;;;10501630;28;19925;-61
2022/12/09 09:33:28;;;;;;;;;;;;;;;;;;10501421;28;20383;-61
2022/12/09 09:38:31;;;;;;;;;;;;;;;;;;10501725;28;19925;-61
2022/12/09 09:43:34;;;;;;;;;;;;;;;;;;10501603;28;19982;-61
2022/12/09 09:48:36;;;;;;;;;;;;;;;;;;10501099;28;19995;-61
2022/12/09 09:53:39;;;;;;;;;;;;;;;;;;10501254;28;19971;-61
2022/12/09 09:58:42;;;;;;;;;;;;;;;;;;10500900;28;19978;-61
2022/12/09 10:03:45;;;;;;;;;;;;;;;;;;10500733;28;19971;-61
2022/12/09 10:08:48;;;;;;;;;;;;;;;;;;10500596;28;19929;-61
2022/12/09 10:13:50;;;;;;;;;;;;;;;;;;10500382;28;20003;-61
2022/12/09 10:18:53;;;;;;;;;;;;;;;;;;10500281;28;19930;-61
2022/12/09 10:23:56;;;;;;;;;;;;;;;;;;10500075;28;19924;-61
2022/12/09 10:28:58;;;;;;;;;;;;;;;;;;10499238;28;20318;-61
2022/12/09 10:34:00;;;;;;;;;;;;;;;;;;10499704;28;19925;-61
2022/12/09 10:39:03;;;;;;;;;;;;;;;;;;10499809;28;19925;-61
2022/12/09 10:44:06;;;;;;;;;;;;;;;;;;10499477;28;19971;-61
2022/12/09 10:49:08;;;;;;;;;;;;;;;;;;10498563;28;19978;-61
2022/12/09 10:54:10;;;;;;;;;;;;;;;;;;10499470;28;19925;-61
2022/12/09 10:59:16;;;;;;;;;;;;;;;;;;10499909;28;19925;-61
2022/12/09 11:04:18;;;;;;;;;;;;;;;;;;10498985;28;19928;-61
2022/12/09 11:09:21;;;;;;;;;;;;;;;;;;10498308;28;20415;-61
2022/12/09 11:14:24;;;;;;;;;;;;;;;;;;10507397;28;19929;-61
2022/12/09 11:19:26;;;;;;;;;;;;;;;;;;10511876;28;19946;-61
2022/12/09 11:24:28;;;;;;;;;;;;;;;;;;10512390;28;19932;-61
2022/12/09 11:29:31;;;;;;;;;;;;;;;;;;10512309;28;19970;-61
2022/12/09 11:34:36;;;;;;;;;;;;;;;;;;10512168;28;19968;-61
2022/12/09 11:39:38;;;;;;;;;;;;;;;;;;10512125;28;19928;-61
2022/12/09 11:44:40;;;;;;;;;;;;;;;;;;10512033;28;19932;-61
2022/12/09 11:49:43;;;;;;;;;;;;;;;;;;10511351;28;19925;-61
2022/12/09 11:54:45;;;;;;;;;;;;;;;;;;10511096;28;19994;-61
2022/12/09 11:59:47;;;;;;;;;;;;;;;;;;10511167;28;20333;-61
2022/12/09 12:04:49;;;;;;;;;;;;;;;;;;10511605;28;19924;-61
2022/12/09 12:09:51;;;;;;;;;;;;;;;;;;10511596;28;19928;-61
2022/12/09 12:14:53;;;;;;;;;;;;;;;;;;10511387;28;19928;-61
2022/12/09 12:19:56;;;;;;;;;;;;;;;;;;10511450;28;19974;-61
2022/12/09 12:24:58;;;;;;;;;;;;;;;;;;10506696;28;19929;-61
2022/12/09 12:30:00;;;;;;;;;;;;;;;;;;10486814;28;19925;-61
2022/12/09 12:35:02;;;;;;;;;;;;;;;;;;10504346;28;19929;-61
2022/12/09 12:40:05;;;;;;;;;;;;;;;;;;10504291;28;19968;-61
2022/12/09 12:50:28;;;;;;;;;;;;;;;;;;10503348;28;20406;-61
2022/12/09 12:55:30;;;;;;;;;;;;;;;;;;10503514;28;19929;-61
2022/12/09 13:00:32;;;;;;;;;;;;;;;;;;10503477;28;19951;-61
2022/12/09 13:05:34;;;;;;;;;;;;;;;;;;10490052;22;19951;-66
2022/12/09 13:10:38;;;;;;;;;;;;;;;;;;10461989;28;19924;-66
2022/12/09 13:15:40;;;;;;;;;;;;;;;;;;10461329;28;19925;-67
2022/12/09 13:20:42;;;;;;;;;;;;;;;;;;10461307;28;19924;-67
2022/12/09 13:25:44;;;;;;;;;;;;;;;;;;10461044;28;19929;-67
2022/12/09 13:30:46;;;;;;;;;;;;;;;;;;10460805;28;19924;-66
2022/12/09 13:35:54;;;;;;;;;;;;;;;;;;10460317;28;19948;-66
2022/12/09 13:40:56;;;;;;;;;;;;;;;;;;10459801;28;20330;-66
2022/12/09 13:45:58;;;;;;;;;;;;;;;;;;10459118;28;19928;-67
2022/12/09 13:51:02;;;;;;;;;;;;;;;;;;10460074;28;19978;-67
2022/12/09 13:56:04;;;;;;;;;;;;;;;;;;10459087;28;19928;-67
2022/12/09 14:01:06;;;;;;;;;;;;;;;;;;10458487;28;19929;-67
2022/12/09 14:06:08;;;;;;;;;;;;;;;;;;10458802;28;19925;-67
2022/12/09 14:11:10;;;;;;;;;;;;;;;;;;10459251;28;19928;-67
2022/12/09 14:16:12;;;;;;;;;;;;;;;;;;10458949;28;19929;-67
2022/12/09 14:21:15;;;;;;;;;;;;;;;;;;10458271;28;19928;-66
2022/12/09 14:26:17;;;;;;;;;;;;;;;;;;10458695;28;19932;-66
2022/12/09 14:31:19;;;;;;;;;;;;;;;;;;10458512;28;19951;-67
2022/12/09 14:36:21;;;;;;;;;;;;;;;;;;10458284;28;19932;-67
2022/12/09 14:41:23;;;;;;;;;;;;;;;;;;10457637;28;19929;-66
2022/12/09 14:46:25;;;;;;;;;;;;;;;;;;10456729;28;19929;-66
2022/12/09 14:51:28;;;;;;;;;;;;;;;;;;10457887;28;19925;-65
2022/12/09 14:56:30;;;;;;;;;;;;;;;;;;10457122;28;20333;-64
2022/12/09 15:01:32;;;;;;;;;;;;;;;;;;10457073;28;20276;-64
2022/12/09 15:06:35;;;;;;;;;;;;;;;;;;10456724;28;19961;-65
2022/12/09 15:11:38;;;;;;;;;;;;;;;;;;10456791;28;19974;-65
2022/12/09 15:16:40;;;;;;;;;;;;;;;;;;10456613;28;19929;-64
2022/12/09 15:21:46;;;;;;;;;;;;;;;;;;10456615;28;20395;-64
2022/12/09 15:26:48;;;;;;;;;;;;;;;;;;10457186;28;19924;-66
2022/12/09 15:31:52;;;;;;;;;;;;;;;;;;10456414;28;19925;-66
2022/12/09 15:36:54;;;;;;;;;;;;;;;;;;10455686;28;19931;-67
2022/12/09 15:42:05;;;;;;;;;;;;;;;;;;10456376;28;19947;-67
2022/12/09 15:47:07;;;;;;;;;;;;;;;;;;10456091;28;19925;-67
2022/12/09 15:52:11;;;;;;;;;;;;;;;;;;10456020;28;20292;-67
2022/12/09 15:57:13;;;;;;;;;;;;;;;;;;10455792;28;19932;-66
2022/12/09 16:02:17;;;;;;;;;;;;;;;;;;10464072;28;19924;-66
2022/12/09 16:07:20;;;;;;;;;;;;;;;;;;10464204;28;19964;-66
2022/12/09 16:12:22;;;;;;;;;;;;;;;;;;10463970;28;19925;-66
2022/12/09 16:17:24;;;;;;;;;;;;;;;;;;10462997;28;20311;-66
2022/12/09 16:22:26;;;;;;;;;;;;;;;;;;10462916;28;20299;-66
2022/12/09 16:27:28;;;;;;;;;;;;;;;;;;10463341;28;19924;-66
2022/12/09 16:32:33;;;;;;;;;;;;;;;;;;10462679;28;19925;-66
2022/12/09 16:37:35;;;;;;;;;;;;;;;;;;10462975;28;19976;-66
2022/12/09 16:42:37;;;;;;;;;;;;;;;;;;10462175;28;19929;-66
2022/12/09 16:47:41;;;;;;;;;;;;;;;;;;10462597;28;19978;-66
2022/12/09 16:52:44;;;;;;;;;;;;;;;;;;10462454;28;19929;-66
2022/12/09 16:57:46;;;;;;;;;;;;;;;;;;10461498;28;20276;-66
2022/12/09 17:02:48;;;;;;;;;;;;;;;;;;10461232;28;20359;-66
2022/12/09 17:07:50;;;;;;;;;;;;;;;;;;10461921;28;19928;-67
2022/12/09 17:12:52;;;;;;;;;;;;;;;;;;10460261;28;20360;-67
2022/12/09 17:17:54;;;;;;;;;;;;;;;;;;10460203;28;19975;-67
2022/12/09 17:22:56;;;;;;;;;;;;;;;;;;10461202;28;19924;-67
2022/12/09 17:27:58;;;;;;;;;;;;;;;;;;10460431;28;19925;-67
2022/12/09 17:33:00;;;;;;;;;;;;;;;;;;10460890;28;19929;-67
2022/12/09 17:38:02;;;;;;;;;;;;;;;;;;10459977;28;19925;-67
2022/12/09 17:43:04;;;;;;;;;;;;;;;;;;10460449;28;19924;-67
2022/12/09 17:48:07;;;;;;;;;;;;;;;;;;10460302;28;19925;-67
2022/12/09 17:53:09;;;;;;;;;;;;;;;;;;10459414;28;19944;-67
2022/12/09 17:58:11;;;;;;;;;;;;;;;;;;10459736;28;19978;-67
2022/12/09 18:03:13;;;;;;;;;;;;;;;;;;10459281;28;19925;-66
2022/12/09 18:08:28;;;;;;;;;;;;;;;;;;10458789;28;19986;-67
2022/12/09 18:13:30;;;;;;;;;;;;;;;;;;10459359;28;20031;-67
2022/12/09 18:18:32;;;;;;;;;;;;;;;;;;10458281;28;20334;-67
2022/12/09 18:23:34;;;;;;;;;;;;;;;;;;10457927;28;19970;-67
2022/12/09 18:28:37;;;;;;;;;;;;;;;;;;10457987;28;20288;-67
2022/12/09 18:33:39;;;;;;;;;;;;;;;;;;10457774;28;20342;-67
2022/12/09 18:38:41;;;;;;;;;;;;;;;;;;10452344;28;20322;-67
2022/12/09 18:43:43;;;;;;;;;;;;;;;;;;10453837;28;20268;-66
2022/12/09 18:48:45;;;;;;;;;;;;;;;;;;10457985;28;19928;-66
2022/12/09 18:53:47;;;;;;;;;;;;;;;;;;10457251;28;20414;-66
2022/12/09 18:58:50;;;;;;;;;;;;;;;;;;10457569;28;19932;-66
2022/12/09 19:04:07;;;;;;;;;;;;;;;;;;10457183;28;19931;-67
2022/12/09 19:09:09;;;;;;;;;;;;;;;;;;10439049;28;20302;-67
2022/12/09 19:14:12;;;;;;;;;;;;;;;;;;10457477;28;19979;-67
2022/12/09 19:19:14;;;;;;;;;;;;;;;;;;10454730;28;19925;-67
2022/12/09 19:24:16;;;;;;;;;;;;;;;;;;10453534;28;19971;-66
2022/12/09 19:29:19;;;;;;;;;;;;;;;;;;10455699;28;19932;-66
2022/12/09 19:34:21;;;;;;;;;;;;;;;;;;10458662;28;19925;-67
2022/12/09 19:39:23;;;;;;;;;;;;;;;;;;10459987;28;19957;-66
2022/12/09 19:44:25;;;;;;;;;;;;;;;;;;10462227;28;20372;-67
2022/12/09 19:49:47;;;;;;;;;;;;;;;;;;10429363;28;20433;-66
2022/12/09 19:54:49;;;;;;;;;;;;;;;;;;10434892;28;19925;-67
2022/12/09 19:59:52;;;;;;;;;;;;;;;;;;10447205;28;19925;-67
2022/12/09 20:04:54;;;;;;;;;;;;;;;;;;10457481;28;20334;-66
2022/12/09 20:09:56;;;;;;;;;;;;;;;;;;10463952;28;19929;-66
2022/12/09 20:14:58;;;;;;;;;;;;;;;;;;10461607;28;19931;-66
2022/12/09 20:20:00;;;;;;;;;;;;;;;;;;10461504;28;20380;-66
2022/12/09 20:25:02;;;;;;;;;;;;;;;;;;10459473;28;19925;-66
2022/12/09 20:30:04;;;;;;;;;;;;;;;;;;10461357;28;20371;-66
2022/12/09 20:35:07;;;;;;;;;;;;;;;;;;10459936;28;20422;-66
2022/12/09 20:40:10;;;;;;;;;;;;;;;;;;10461892;28;20028;-67
2022/12/09 20:45:12;;;;;;;;;;;;;;;;;;10461174;28;20272;-67
2022/12/09 20:50:14;;;;;;;;;;;;;;;;;;10461946;28;19932;-67
2022/12/09 20:55:16;;;;;;;;;;;;;;;;;;10460765;28;20368;-67
2022/12/09 21:00:19;;;;;;;;;;;;;;;;;;10461425;28;19932;-68
2022/12/09 21:05:21;;;;;;;;;;;;;;;;;;10461389;28;19974;-67
2022/12/09 21:10:23;;;;;;;;;;;;;;;;;;10459831;28;19932;-67
2022/12/09 21:15:26;;;;;;;;;;;;;;;;;;10460916;28;19925;-67
2022/12/09 21:20:28;;;;;;;;;;;;;;;;;;10460787;28;20376;-67
2022/12/09 21:25:32;;;;;;;;;;;;;;;;;;10458852;28;20310;-67
2022/12/09 21:30:34;;;;;;;;;;;;;;;;;;10460309;28;19932;-67
2022/12/09 21:35:36;;;;;;;;;;;;;;;;;;10460067;28;19929;-67
2022/12/09 21:40:38;;;;;;;;;;;;;;;;;;10459223;28;19924;-67
2022/12/09 21:45:40;;;;;;;;;;;;;;;;;;10459747;28;19925;-67
2022/12/09 21:50:43;;;;;;;;;;;;;;;;;;10459544;28;20411;-67
2022/12/09 21:55:45;;;;;;;;;;;;;;;;;;10458159;28;19948;-67
2022/12/09 22:00:47;;;;;;;;;;;;;;;;;;10459155;28;19925;-67
2022/12/09 22:05:49;;;;;;;;;;;;;;;;;;10459008;28;19925;-67
2022/12/09 22:10:57;;;;;;;;;;;;;;;;;;10458017;28;19933;-67
2022/12/09 22:15:59;;;;;;;;;;;;;;;;;;10440432;28;19925;-67
2022/12/09 22:21:01;;;;;;;;;;;;;;;;;;10459016;28;19931;-67
2022/12/09 22:26:23;;;;;;;;;;;;;;;;;;10457785;28;19929;-67
2022/12/09 22:31:25;;;;;;;;;;;;;;;;;;10457125;28;20327;-67
2022/12/09 22:36:27;;;;;;;;;;;;;;;;;;10458370;28;19974;-67
2022/12/09 22:41:30;;;;;;;;;;;;;;;;;;10458266;28;19925;-68
2022/12/09 22:46:32;;;;;;;;;;;;;;;;;;10456558;28;19929;-68
2022/12/09 22:51:35;;;;;;;;;;;;;;;;;;10456665;28;19924;-68
2022/12/09 22:56:37;;;;;;;;;;;;;;;;;;10457755;28;19924;-68
2022/12/09 23:01:39;;;;;;;;;;;;;;;;;;10456737;28;19929;-67
2022/12/09 23:06:41;;;;;;;;;;;;;;;;;;10456866;28;19925;-68
2022/12/09 23:11:43;;;;;;;;;;;;;;;;;;10455947;28;19929;-68
2022/12/09 23:16:45;;;;;;;;;;;;;;;;;;10457241;28;19925;-68
2022/12/09 23:21:47;;;;;;;;;;;;;;;;;;10456610;28;20306;-68
2022/12/09 23:26:49;;;;;;;;;;;;;;;;;;10456335;28;19980;-68
2022/12/09 23:31:51;;;;;;;;;;;;;;;;;;10456080;28;19924;-68
2022/12/09 23:36:54;;;;;;;;;;;;;;;;;;10456895;28;19928;-68
2022/12/09 23:41:56;;;;;;;;;;;;;;;;;;10456255;28;20398;-68
2022/12/09 23:46:58;;;;;;;;;;;;;;;;;;10455746;28;19979;-68
2022/12/09 23:52:00;;;;;;;;;;;;;;;;;;10456180;28;19983;-68
2022/12/09 23:57:03;;;;;;;;;;;;;;;;;;10456502;28;19975;-68
